sensor_id;sensor_type;location;lat;lon;timestamp;temperature;humidity
2409;DHT22;8463;48.094;7.970;2023-07-16T00:01:15;20.60;1.00
2409;DHT22;8463;48.094;7.970;2023-07-16T00:03:40;20.50;1.00
2409;DHT22;8463;48.094;7.970;2023-07-16T00:06:06;20.50;1.00
2409;DHT22;8463;48.094;7.970;2023-07-16T00:13:24;20.60;1.00
2409;DHT22;8463;48.094;7.970;2023-07-16T00:15:51;20.50;1.00
2409;DHT22;8463;48.094;7.970;2023-07-16T00:18:17;20.50;1.00
2409;DHT22;8463;48.094;7.970;2023-07-16T00:20:43;20.40;1.00
2409;DHT22;8463;48.094;7.970;2023-07-16T00:23:08;20.30;1.00
2409;DHT22;8463;48.094;7.970;2023-07-16T00:25:34;20.30;1.00
2409;DHT22;8463;48.094;7.970;2023-07-16T00:28:00;20.20;1.00
2409;DHT22;8463;48.094;7.970;2023-07-16T00:30:26;20.00;1.00
2409;DHT22;8463;48.094;7.970;2023-07-16T00:32:51;20.00;1.00
2409;DHT22;8463;48.094;7.970;2023-07-16T00:35:17;19.90;1.00
2409;DHT22;8463;48.094;7.970;2023-07-16T00:37:43;19.90;1.00
2409;DHT22;8463;48.094;7.970;2023-07-16T00:40:10;20.10;1.00
2409;DHT22;8463;48.094;7.970;2023-07-16T00:42:42;20.10;1.00
2409;DHT22;8463;48.094;7.970;2023-07-16T00:45:11;20.10;1.00
2409;DHT22;8463;48.094;7.970;2023-07-16T00:47:39;19.50;1.00
2409;DHT22;8463;48.094;7.970;2023-07-16T00:50:08;19.30;1.00
2409;DHT22;8463;48.094;7.970;2023-07-16T00:52:34;19.20;1.00
2409;DHT22;8463;48.094;7.970;2023-07-16T00:55:00;19.20;1.00
2409;DHT22;8463;48.094;7.970;2023-07-16T00:57:26;19.20;1.00
2409;DHT22;8463;48.094;7.970;2023-07-16T01:02:19;18.90;1.00
2409;DHT22;8463;48.094;7.970;2023-07-16T01:04:45;18.80;1.00
2409;DHT22;8463;48.094;7.970;2023-07-16T01:07:11;18.80;1.00
2409;DHT22;8463;48.094;7.970;2023-07-16T01:09:42;18.80;1.00
2409;DHT22;8463;48.094;7.970;2023-07-16T01:12:09;18.80;1.00
2409;DHT22;8463;48.094;7.970;2023-07-16T01:14:35;19.10;1.00
2409;DHT22;8463;48.094;7.970;2023-07-16T01:17:06;19.10;1.00
2409;DHT22;8463;48.094;7.970;2023-07-16T01:19:33;19.30;1.00
2409;DHT22;8463;48.094;7.970;2023-07-16T01:30:42;18.50;1.00
2409;DHT22;8463;48.094;7.970;2023-07-16T01:33:15;18.50;1.00
2409;DHT22;8463;48.094;7.970;2023-07-16T01:35:42;18.50;1.00
2409;DHT22;8463;48.094;7.970;2023-07-16T01:38:10;18.50;1.00
2409;DHT22;8463;48.094;7.970;2023-07-16T01:40:35;18.40;1.00
2409;DHT22;8463;48.094;7.970;2023-07-16T01:43:01;18.50;1.00
2409;DHT22;8463;48.094;7.970;2023-07-16T01:45:27;18.50;1.00
2409;DHT22;8463;48.094;7.970;2023-07-16T01:50:41;18.30;1.00
2409;DHT22;8463;48.094;7.970;2023-07-16T01:53:13;18.40;1.00
2409;DHT22;8463;48.094;7.970;2023-07-16T01:55:39;18.40;1.00
2409;DHT22;8463;48.094;7.970;2023-07-16T01:58:07;18.40;1.00
2409;DHT22;8463;48.094;7.970;2023-07-16T02:00:33;18.10;1.00
2409;DHT22;8463;48.094;7.970;2023-07-16T02:02:59;18.10;1.00
2409;DHT22;8463;48.094;7.970;2023-07-16T02:05:25;18.00;1.00
2409;DHT22;8463;48.094;7.970;2023-07-16T02:07:50;18.00;1.00
2409;DHT22;8463;48.094;7.970;2023-07-16T02:10:16;18.00;1.00
2409;DHT22;8463;48.094;7.970;2023-07-16T02:12:42;17.90;1.00
2409;DHT22;8463;48.094;7.970;2023-07-16T02:15:07;17.90;1.00
2409;DHT22;8463;48.094;7.970;2023-07-16T02:17:33;17.90;1.00
2409;DHT22;8463;48.094;7.970;2023-07-16T02:20:01;17.80;1.00
2409;DHT22;8463;48.094;7.970;2023-07-16T02:22:30;17.80;1.00
2409;DHT22;8463;48.094;7.970;2023-07-16T02:24:55;17.90;1.00
2409;DHT22;8463;48.094;7.970;2023-07-16T02:27:21;17.80;1.00
2409;DHT22;8463;48.094;7.970;2023-07-16T02:29:46;17.70;1.00
2409;DHT22;8463;48.094;7.970;2023-07-16T02:32:12;17.80;1.00
2409;DHT22;8463;48.094;7.970;2023-07-16T02:34:38;17.70;1.00
2409;DHT22;8463;48.094;7.970;2023-07-16T02:39:30;17.70;1.00
2409;DHT22;8463;48.094;7.970;2023-07-16T02:41:55;17.60;1.00
2409;DHT22;8463;48.094;7.970;2023-07-16T02:44:21;17.60;1.00
2409;DHT22;8463;48.094;7.970;2023-07-16T02:46:50;17.70;1.00
2409;DHT22;8463;48.094;7.970;2023-07-16T02:49:16;17.70;1.00
2409;DHT22;8463;48.094;7.970;2023-07-16T02:51:42;17.60;1.00
2409;DHT22;8463;48.094;7.970;2023-07-16T02:54:10;17.40;1.00
2409;DHT22;8463;48.094;7.970;2023-07-16T02:56:36;17.40;1.00
2409;DHT22;8463;48.094;7.970;2023-07-16T02:59:04;17.30;1.00
2409;DHT22;8463;48.094;7.970;2023-07-16T03:01:32;17.40;1.00
2409;DHT22;8463;48.094;7.970;2023-07-16T03:03:57;17.40;1.00
2409;DHT22;8463;48.094;7.970;2023-07-16T03:06:24;17.40;1.00
2409;DHT22;8463;48.094;7.970;2023-07-16T03:08:50;17.40;1.00
2409;DHT22;8463;48.094;7.970;2023-07-16T03:11:16;17.60;1.00
2409;DHT22;8463;48.094;7.970;2023-07-16T03:13:42;17.60;1.00
2409;DHT22;8463;48.094;7.970;2023-07-16T03:16:07;17.70;1.00
2409;DHT22;8463;48.094;7.970;2023-07-16T03:18:33;17.70;1.00
2409;DHT22;8463;48.094;7.970;2023-07-16T03:20:59;17.60;1.00
2409;DHT22;8463;48.094;7.970;2023-07-16T03:23:25;17.60;1.00
2409;DHT22;8463;48.094;7.970;2023-07-16T03:25:51;17.50;1.00
2409;DHT22;8463;48.094;7.970;2023-07-16T03:28:17;17.60;1.00
2409;DHT22;8463;48.094;7.970;2023-07-16T03:30:50;17.60;1.00
2409;DHT22;8463;48.094;7.970;2023-07-16T03:33:16;17.90;1.00
2409;DHT22;8463;48.094;7.970;2023-07-16T03:35:43;17.90;1.00
2409;DHT22;8463;48.094;7.970;2023-07-16T03:38:10;18.00;1.00
2409;DHT22;8463;48.094;7.970;2023-07-16T03:40:37;18.00;1.00
2409;DHT22;8463;48.094;7.970;2023-07-16T03:43:03;18.10;1.00
2409;DHT22;8463;48.094;7.970;2023-07-16T03:45:28;18.10;1.00
2409;DHT22;8463;48.094;7.970;2023-07-16T03:48:00;17.90;1.00
2409;DHT22;8463;48.094;7.970;2023-07-16T03:50:28;18.00;1.00
2409;DHT22;8463;48.094;7.970;2023-07-16T03:52:53;17.70;1.00
2409;DHT22;8463;48.094;7.970;2023-07-16T03:55:21;17.60;1.00
2409;DHT22;8463;48.094;7.970;2023-07-16T03:57:47;17.50;1.00
2409;DHT22;8463;48.094;7.970;2023-07-16T04:00:13;17.50;1.00
2409;DHT22;8463;48.094;7.970;2023-07-16T04:02:39;17.50;1.00
2409;DHT22;8463;48.094;7.970;2023-07-16T04:05:04;17.30;1.00
2409;DHT22;8463;48.094;7.970;2023-07-16T04:07:33;17.20;1.00
2409;DHT22;8463;48.094;7.970;2023-07-16T04:09:59;17.20;1.00
2409;DHT22;8463;48.094;7.970;2023-07-16T04:12:24;17.20;1.00
2409;DHT22;8463;48.094;7.970;2023-07-16T04:14:58;17.40;1.00
2409;DHT22;8463;48.094;7.970;2023-07-16T04:17:26;17.40;1.00
2409;DHT22;8463;48.094;7.970;2023-07-16T04:19:52;17.60;1.00
2409;DHT22;8463;48.094;7.970;2023-07-16T04:22:18;17.60;1.00
2409;DHT22;8463;48.094;7.970;2023-07-16T04:24:43;17.90;1.00
2409;DHT22;8463;48.094;7.970;2023-07-16T04:27:09;17.70;1.00
2409;DHT22;8463;48.094;7.970;2023-07-16T04:29:35;17.70;1.00
2409;DHT22;8463;48.094;7.970;2023-07-16T04:32:01;17.60;1.00
2409;DHT22;8463;48.094;7.970;2023-07-16T04:34:27;17.60;1.00
2409;DHT22;8463;48.094;7.970;2023-07-16T04:36:53;17.50;1.00
2409;DHT22;8463;48.094;7.970;2023-07-16T04:39:19;17.50;1.00
2409;DHT22;8463;48.094;7.970;2023-07-16T04:41:44;17.60;1.00
2409;DHT22;8463;48.094;7.970;2023-07-16T04:44:10;17.60;1.00
2409;DHT22;8463;48.094;7.970;2023-07-16T04:46:38;17.60;1.00
2409;DHT22;8463;48.094;7.970;2023-07-16T04:49:04;17.60;1.00
2409;DHT22;8463;48.094;7.970;2023-07-16T04:51:31;17.60;1.00
2409;DHT22;8463;48.094;7.970;2023-07-16T04:53:56;17.90;1.00
2409;DHT22;8463;48.094;7.970;2023-07-16T04:56:22;17.90;1.00
2409;DHT22;8463;48.094;7.970;2023-07-16T04:58:47;18.10;1.00
2409;DHT22;8463;48.094;7.970;2023-07-16T05:01:13;18.40;1.00
2409;DHT22;8463;48.094;7.970;2023-07-16T05:03:39;18.40;1.00
2409;DHT22;8463;48.094;7.970;2023-07-16T05:06:10;18.30;1.00
2409;DHT22;8463;48.094;7.970;2023-07-16T05:08:36;18.30;1.00
2409;DHT22;8463;48.094;7.970;2023-07-16T05:11:01;18.40;1.00
2409;DHT22;8463;48.094;7.970;2023-07-16T05:13:27;18.40;1.00
2409;DHT22;8463;48.094;7.970;2023-07-16T05:15:53;18.50;1.00
2409;DHT22;8463;48.094;7.970;2023-07-16T05:18:18;18.50;1.00
2409;DHT22;8463;48.094;7.970;2023-07-16T05:20:49;18.60;1.00
2409;DHT22;8463;48.094;7.970;2023-07-16T05:23:15;18.60;1.00
2409;DHT22;8463;48.094;7.970;2023-07-16T05:25:50;18.70;1.00
2409;DHT22;8463;48.094;7.970;2023-07-16T05:28:17;18.70;1.00
2409;DHT22;8463;48.094;7.970;2023-07-16T05:30:43;18.70;1.00
2409;DHT22;8463;48.094;7.970;2023-07-16T05:33:11;18.60;1.00
2409;DHT22;8463;48.094;7.970;2023-07-16T05:35:37;18.60;1.00
2409;DHT22;8463;48.094;7.970;2023-07-16T05:38:03;18.70;1.00
2409;DHT22;8463;48.094;7.970;2023-07-16T05:40:28;18.70;1.00
2409;DHT22;8463;48.094;7.970;2023-07-16T05:42:54;18.70;1.00
2409;DHT22;8463;48.094;7.970;2023-07-16T05:45:22;18.80;1.00
2409;DHT22;8463;48.094;7.970;2023-07-16T05:47:55;18.80;1.00
2409;DHT22;8463;48.094;7.970;2023-07-16T05:50:20;18.80;1.00
2409;DHT22;8463;48.094;7.970;2023-07-16T05:52:46;18.80;1.00
2409;DHT22;8463;48.094;7.970;2023-07-16T05:55:13;18.70;1.00
2409;DHT22;8463;48.094;7.970;2023-07-16T05:57:39;18.80;1.00
2409;DHT22;8463;48.094;7.970;2023-07-16T06:00:05;18.80;1.00
2409;DHT22;8463;48.094;7.970;2023-07-16T06:02:31;18.70;1.00
2409;DHT22;8463;48.094;7.970;2023-07-16T06:04:57;19.10;1.00
2409;DHT22;8463;48.094;7.970;2023-07-16T06:07:23;19.30;1.00
2409;DHT22;8463;48.094;7.970;2023-07-16T06:09:48;19.50;1.00
2409;DHT22;8463;48.094;7.970;2023-07-16T06:12:15;19.50;1.00
2409;DHT22;8463;48.094;7.970;2023-07-16T06:14:43;19.50;1.00
2409;DHT22;8463;48.094;7.970;2023-07-16T06:17:08;19.60;1.00
2409;DHT22;8463;48.094;7.970;2023-07-16T06:19:34;19.50;1.00
2409;DHT22;8463;48.094;7.970;2023-07-16T06:22:00;19.20;1.00
2409;DHT22;8463;48.094;7.970;2023-07-16T06:24:26;19.20;1.00
2409;DHT22;8463;48.094;7.970;2023-07-16T06:26:52;19.40;1.00
2409;DHT22;8463;48.094;7.970;2023-07-16T06:29:17;19.70;1.00
2409;DHT22;8463;48.094;7.970;2023-07-16T06:31:55;20.00;1.00
2409;DHT22;8463;48.094;7.970;2023-07-16T06:34:23;20.00;1.00
2409;DHT22;8463;48.094;7.970;2023-07-16T06:36:49;19.50;1.00
2409;DHT22;8463;48.094;7.970;2023-07-16T06:39:15;19.40;1.00
2409;DHT22;8463;48.094;7.970;2023-07-16T06:41:40;19.50;1.00
2409;DHT22;8463;48.094;7.970;2023-07-16T06:44:11;19.20;1.00
2409;DHT22;8463;48.094;7.970;2023-07-16T06:46:36;19.10;1.00
2409;DHT22;8463;48.094;7.970;2023-07-16T06:49:02;18.90;1.00
2409;DHT22;8463;48.094;7.970;2023-07-16T06:51:28;18.90;1.00
2409;DHT22;8463;48.094;7.970;2023-07-16T06:53:55;18.80;1.00
2409;DHT22;8463;48.094;7.970;2023-07-16T06:56:21;18.80;1.00
2409;DHT22;8463;48.094;7.970;2023-07-16T06:58:47;18.70;1.00
2409;DHT22;8463;48.094;7.970;2023-07-16T07:01:13;18.90;1.00
2409;DHT22;8463;48.094;7.970;2023-07-16T07:03:38;19.10;1.00
2409;DHT22;8463;48.094;7.970;2023-07-16T07:06:04;19.20;1.00
2409;DHT22;8463;48.094;7.970;2023-07-16T07:08:30;19.50;1.00
2409;DHT22;8463;48.094;7.970;2023-07-16T07:10:56;19.50;1.00
2409;DHT22;8463;48.094;7.970;2023-07-16T07:13:21;19.80;1.00
2409;DHT22;8463;48.094;7.970;2023-07-16T07:15:47;19.70;1.00
2409;DHT22;8463;48.094;7.970;2023-07-16T07:20:49;19.40;1.00
2409;DHT22;8463;48.094;7.970;2023-07-16T07:23:15;19.60;1.00
2409;DHT22;8463;48.094;7.970;2023-07-16T07:25:41;19.50;1.00
2409;DHT22;8463;48.094;7.970;2023-07-16T07:28:07;19.50;1.00
2409;DHT22;8463;48.094;7.970;2023-07-16T07:30:33;19.20;1.00
2409;DHT22;8463;48.094;7.970;2023-07-16T07:32:58;19.20;1.00
2409;DHT22;8463;48.094;7.970;2023-07-16T07:35:24;19.30;1.00
2409;DHT22;8463;48.094;7.970;2023-07-16T07:37:51;19.20;1.00
2409;DHT22;8463;48.094;7.970;2023-07-16T07:40:16;19.30;1.00
2409;DHT22;8463;48.094;7.970;2023-07-16T07:42:45;19.40;1.00
2409;DHT22;8463;48.094;7.970;2023-07-16T07:45:11;19.50;1.00
2409;DHT22;8463;48.094;7.970;2023-07-16T07:47:36;19.50;1.00
2409;DHT22;8463;48.094;7.970;2023-07-16T07:50:02;19.80;1.00
2409;DHT22;8463;48.094;7.970;2023-07-16T07:52:28;20.20;1.00
2409;DHT22;8463;48.094;7.970;2023-07-16T07:54:54;20.20;1.00
2409;DHT22;8463;48.094;7.970;2023-07-16T07:57:27;20.30;1.00
2409;DHT22;8463;48.094;7.970;2023-07-16T07:59:52;20.30;1.00
2409;DHT22;8463;48.094;7.970;2023-07-16T08:02:22;20.40;1.00
2409;DHT22;8463;48.094;7.970;2023-07-16T08:04:51;20.30;1.00
2409;DHT22;8463;48.094;7.970;2023-07-16T08:07:19;20.50;1.00
2409;DHT22;8463;48.094;7.970;2023-07-16T08:09:45;20.70;1.00
2409;DHT22;8463;48.094;7.970;2023-07-16T08:12:11;20.70;1.00
2409;DHT22;8463;48.094;7.970;2023-07-16T08:14:37;20.50;1.00
2409;DHT22;8463;48.094;7.970;2023-07-16T08:17:03;20.60;1.00
2409;DHT22;8463;48.094;7.970;2023-07-16T08:19:31;20.70;1.00
2409;DHT22;8463;48.094;7.970;2023-07-16T08:21:56;20.70;1.00
2409;DHT22;8463;48.094;7.970;2023-07-16T08:24:22;20.90;1.00
2409;DHT22;8463;48.094;7.970;2023-07-16T08:26:48;20.80;1.00
2409;DHT22;8463;48.094;7.970;2023-07-16T08:29:15;21.00;1.00
2409;DHT22;8463;48.094;7.970;2023-07-16T08:31:43;21.00;1.00
2409;DHT22;8463;48.094;7.970;2023-07-16T08:34:08;21.10;1.00
2409;DHT22;8463;48.094;7.970;2023-07-16T08:36:35;21.10;1.00
2409;DHT22;8463;48.094;7.970;2023-07-16T08:39:09;21.30;1.00
2409;DHT22;8463;48.094;7.970;2023-07-16T08:41:35;21.30;1.00
2409;DHT22;8463;48.094;7.970;2023-07-16T08:46:27;21.10;1.00
2409;DHT22;8463;48.094;7.970;2023-07-16T08:48:53;21.10;1.00
2409;DHT22;8463;48.094;7.970;2023-07-16T08:51:20;21.20;1.00
2409;DHT22;8463;48.094;7.970;2023-07-16T08:53:47;21.50;1.00
2409;DHT22;8463;48.094;7.970;2023-07-16T08:56:12;21.60;1.00
2409;DHT22;8463;48.094;7.970;2023-07-16T08:58:40;21.80;1.00
2409;DHT22;8463;48.094;7.970;2023-07-16T09:01:07;22.00;1.00
2409;DHT22;8463;48.094;7.970;2023-07-16T09:03:33;22.10;1.00
2409;DHT22;8463;48.094;7.970;2023-07-16T09:05:59;22.10;1.00
2409;DHT22;8463;48.094;7.970;2023-07-16T09:08:25;21.70;1.00
2409;DHT22;8463;48.094;7.970;2023-07-16T09:10:57;21.50;1.00
2409;DHT22;8463;48.094;7.970;2023-07-16T09:13:24;21.50;1.00
2409;DHT22;8463;48.094;7.970;2023-07-16T09:15:57;24.10;1.00
2409;DHT22;8463;48.094;7.970;2023-07-16T09:18:24;21.20;1.00
2409;DHT22;8463;48.094;7.970;2023-07-16T09:23:24;21.10;1.00
2409;DHT22;8463;48.094;7.970;2023-07-16T09:25:55;21.20;1.00
2409;DHT22;8463;48.094;7.970;2023-07-16T09:28:20;21.20;1.00
2409;DHT22;8463;48.094;7.970;2023-07-16T09:30:47;21.20;1.00
2409;DHT22;8463;48.094;7.970;2023-07-16T09:33:15;21.40;1.00
2409;DHT22;8463;48.094;7.970;2023-07-16T09:35:41;21.60;1.00
2409;DHT22;8463;48.094;7.970;2023-07-16T09:38:08;22.30;1.00
2409;DHT22;8463;48.094;7.970;2023-07-16T09:40:36;22.00;1.00
2409;DHT22;8463;48.094;7.970;2023-07-16T09:43:03;21.90;1.00
2409;DHT22;8463;48.094;7.970;2023-07-16T09:45:29;22.00;1.00
2409;DHT22;8463;48.094;7.970;2023-07-16T09:47:55;22.20;1.00
2409;DHT22;8463;48.094;7.970;2023-07-16T09:50:30;22.20;1.00
2409;DHT22;8463;48.094;7.970;2023-07-16T09:52:57;22.20;1.00
2409;DHT22;8463;48.094;7.970;2023-07-16T09:55:23;22.40;1.00
2409;DHT22;8463;48.094;7.970;2023-07-16T09:57:52;22.00;1.00
2409;DHT22;8463;48.094;7.970;2023-07-16T10:00:18;22.00;1.00
2409;DHT22;8463;48.094;7.970;2023-07-16T10:02:46;21.80;1.00
2409;DHT22;8463;48.094;7.970;2023-07-16T10:05:37;21.70;1.00
2409;DHT22;8463;48.094;7.970;2023-07-16T10:08:15;21.80;1.00
2409;DHT22;8463;48.094;7.970;2023-07-16T10:13:14;21.70;1.00
2409;DHT22;8463;48.094;7.970;2023-07-16T10:15:54;21.70;1.00
2409;DHT22;8463;48.094;7.970;2023-07-16T10:18:31;21.70;1.00
2409;DHT22;8463;48.094;7.970;2023-07-16T10:21:07;21.70;1.00
2409;DHT22;8463;48.094;7.970;2023-07-16T10:23:44;22.10;1.00
2409;DHT22;8463;48.094;7.970;2023-07-16T10:26:13;21.90;1.00
2409;DHT22;8463;48.094;7.970;2023-07-16T10:28:39;22.00;1.00
2409;DHT22;8463;48.094;7.970;2023-07-16T10:31:22;22.20;1.00
2409;DHT22;8463;48.094;7.970;2023-07-16T10:36:25;22.40;1.00
2409;DHT22;8463;48.094;7.970;2023-07-16T10:38:51;22.40;1.00
2409;DHT22;8463;48.094;7.970;2023-07-16T10:41:17;22.50;1.00
2409;DHT22;8463;48.094;7.970;2023-07-16T10:43:43;22.60;1.00
2409;DHT22;8463;48.094;7.970;2023-07-16T10:46:09;22.60;1.00
2409;DHT22;8463;48.094;7.970;2023-07-16T10:48:37;22.30;1.00
2409;DHT22;8463;48.094;7.970;2023-07-16T10:51:03;22.40;1.00
2409;DHT22;8463;48.094;7.970;2023-07-16T10:53:41;22.40;1.00
2409;DHT22;8463;48.094;7.970;2023-07-16T10:56:08;22.80;1.00
2409;DHT22;8463;48.094;7.970;2023-07-16T10:58:36;22.80;1.00
2409;DHT22;8463;48.094;7.970;2023-07-16T11:01:02;23.20;1.00
2409;DHT22;8463;48.094;7.970;2023-07-16T11:03:28;23.60;1.00
2409;DHT22;8463;48.094;7.970;2023-07-16T11:05:53;23.70;1.00
2409;DHT22;8463;48.094;7.970;2023-07-16T11:08:25;23.70;1.00
2409;DHT22;8463;48.094;7.970;2023-07-16T11:10:55;24.00;1.00
2409;DHT22;8463;48.094;7.970;2023-07-16T11:13:35;24.60;1.00
2409;DHT22;8463;48.094;7.970;2023-07-16T11:16:08;24.20;1.00
2409;DHT22;8463;48.094;7.970;2023-07-16T11:18:33;24.20;1.00
2409;DHT22;8463;48.094;7.970;2023-07-16T11:20:59;24.20;1.00
2409;DHT22;8463;48.094;7.970;2023-07-16T11:23:25;24.00;1.00
2409;DHT22;8463;48.094;7.970;2023-07-16T11:25:52;23.90;1.00
2409;DHT22;8463;48.094;7.970;2023-07-16T11:28:18;23.60;1.00
2409;DHT22;8463;48.094;7.970;2023-07-16T11:30:44;23.80;1.00
2409;DHT22;8463;48.094;7.970;2023-07-16T11:33:10;23.70;1.00
2409;DHT22;8463;48.094;7.970;2023-07-16T11:35:39;23.80;1.00
2409;DHT22;8463;48.094;7.970;2023-07-16T11:38:06;24.00;1.00
2409;DHT22;8463;48.094;7.970;2023-07-16T11:40:34;23.90;1.00
2409;DHT22;8463;48.094;7.970;2023-07-16T11:43:11;23.60;1.00
2409;DHT22;8463;48.094;7.970;2023-07-16T11:45:37;23.60;1.00
2409;DHT22;8463;48.094;7.970;2023-07-16T11:48:04;23.80;1.00
2409;DHT22;8463;48.094;7.970;2023-07-16T11:50:30;24.20;1.00
2409;DHT22;8463;48.094;7.970;2023-07-16T11:53:00;24.50;1.00
2409;DHT22;8463;48.094;7.970;2023-07-16T11:55:26;24.50;1.00
2409;DHT22;8463;48.094;7.970;2023-07-16T11:57:52;24.30;1.00
2409;DHT22;8463;48.094;7.970;2023-07-16T12:00:19;24.60;1.00
2409;DHT22;8463;48.094;7.970;2023-07-16T12:02:45;24.10;1.00
2409;DHT22;8463;48.094;7.970;2023-07-16T12:05:17;24.10;1.00
2409;DHT22;8463;48.094;7.970;2023-07-16T12:07:43;24.10;1.00
2409;DHT22;8463;48.094;7.970;2023-07-16T12:10:09;24.30;1.00
2409;DHT22;8463;48.094;7.970;2023-07-16T12:12:37;24.20;1.00
2409;DHT22;8463;48.094;7.970;2023-07-16T12:15:07;24.10;1.00
2409;DHT22;8463;48.094;7.970;2023-07-16T12:17:33;24.60;1.00
2409;DHT22;8463;48.094;7.970;2023-07-16T12:19:59;25.30;1.00
2409;DHT22;8463;48.094;7.970;2023-07-16T12:22:25;25.90;1.00
2409;DHT22;8463;48.094;7.970;2023-07-16T12:24:50;25.40;1.00
2409;DHT22;8463;48.094;7.970;2023-07-16T12:27:18;25.00;1.00
2409;DHT22;8463;48.094;7.970;2023-07-16T12:29:46;24.80;1.00
2409;DHT22;8463;48.094;7.970;2023-07-16T12:32:13;25.20;1.00
2409;DHT22;8463;48.094;7.970;2023-07-16T12:34:39;25.60;1.00
2409;DHT22;8463;48.094;7.970;2023-07-16T12:37:05;25.90;1.00
2409;DHT22;8463;48.094;7.970;2023-07-16T12:39:32;26.10;1.00
2409;DHT22;8463;48.094;7.970;2023-07-16T12:41:58;25.90;1.00
2409;DHT22;8463;48.094;7.970;2023-07-16T12:46:52;24.70;1.00
2409;DHT22;8463;48.094;7.970;2023-07-16T12:49:18;24.70;1.00
2409;DHT22;8463;48.094;7.970;2023-07-16T12:51:44;24.80;1.00
2409;DHT22;8463;48.094;7.970;2023-07-16T12:56:39;25.00;1.00
2409;DHT22;8463;48.094;7.970;2023-07-16T12:59:04;25.10;1.00
2409;DHT22;8463;48.094;7.970;2023-07-16T13:01:30;25.40;1.00
2409;DHT22;8463;48.094;7.970;2023-07-16T13:03:56;25.00;1.00
2409;DHT22;8463;48.094;7.970;2023-07-16T13:06:21;24.70;1.00
2409;DHT22;8463;48.094;7.970;2023-07-16T13:08:47;25.30;1.00
2409;DHT22;8463;48.094;7.970;2023-07-16T13:11:13;25.20;1.00
2409;DHT22;8463;48.094;7.970;2023-07-16T13:13:38;25.40;1.00
2409;DHT22;8463;48.094;7.970;2023-07-16T13:16:06;25.30;1.00
2409;DHT22;8463;48.094;7.970;2023-07-16T13:18:32;25.40;1.00
2409;DHT22;8463;48.094;7.970;2023-07-16T13:20:57;25.00;1.00
2409;DHT22;8463;48.094;7.970;2023-07-16T13:23:23;26.00;1.00
2409;DHT22;8463;48.094;7.970;2023-07-16T13:25:51;26.10;1.00
2409;DHT22;8463;48.094;7.970;2023-07-16T13:28:18;26.10;1.00
2409;DHT22;8463;48.094;7.970;2023-07-16T13:30:43;26.60;1.00
2409;DHT22;8463;48.094;7.970;2023-07-16T13:33:09;26.10;1.00
2409;DHT22;8463;48.094;7.970;2023-07-16T13:35:34;26.10;1.00
2409;DHT22;8463;48.094;7.970;2023-07-16T13:38:01;26.00;1.00
2409;DHT22;8463;48.094;7.970;2023-07-16T13:40:27;26.00;1.00
2409;DHT22;8463;48.094;7.970;2023-07-16T13:42:53;26.40;1.00
2409;DHT22;8463;48.094;7.970;2023-07-16T13:45:19;26.40;1.00
2409;DHT22;8463;48.094;7.970;2023-07-16T13:47:45;26.60;1.00
2409;DHT22;8463;48.094;7.970;2023-07-16T13:50:10;27.30;1.00
2409;DHT22;8463;48.094;7.970;2023-07-16T13:52:36;27.30;1.00
2409;DHT22;8463;48.094;7.970;2023-07-16T13:55:11;27.20;1.00
2409;DHT22;8463;48.094;7.970;2023-07-16T13:57:37;27.00;1.00
2409;DHT22;8463;48.094;7.970;2023-07-16T14:00:03;26.60;1.00
2409;DHT22;8463;48.094;7.970;2023-07-16T14:02:33;26.10;1.00
2409;DHT22;8463;48.094;7.970;2023-07-16T14:05:01;26.10;1.00
2409;DHT22;8463;48.094;7.970;2023-07-16T14:07:27;26.10;1.00
2409;DHT22;8463;48.094;7.970;2023-07-16T14:09:54;26.10;1.00
2409;DHT22;8463;48.094;7.970;2023-07-16T14:12:20;26.10;1.00
2409;DHT22;8463;48.094;7.970;2023-07-16T14:14:45;25.80;1.00
2409;DHT22;8463;48.094;7.970;2023-07-16T14:17:11;25.80;1.00
2409;DHT22;8463;48.094;7.970;2023-07-16T14:19:37;26.40;1.00
2409;DHT22;8463;48.094;7.970;2023-07-16T14:22:05;26.20;1.00
2409;DHT22;8463;48.094;7.970;2023-07-16T14:24:31;26.20;1.00
2409;DHT22;8463;48.094;7.970;2023-07-16T14:26:58;26.50;1.00
2409;DHT22;8463;48.094;7.970;2023-07-16T14:29:26;26.50;1.00
2409;DHT22;8463;48.094;7.970;2023-07-16T14:31:53;26.10;1.00
2409;DHT22;8463;48.094;7.970;2023-07-16T14:34:18;26.40;1.00
2409;DHT22;8463;48.094;7.970;2023-07-16T14:36:44;26.60;1.00
2409;DHT22;8463;48.094;7.970;2023-07-16T14:39:19;26.70;1.00
2409;DHT22;8463;48.094;7.970;2023-07-16T14:41:45;27.20;1.00
2409;DHT22;8463;48.094;7.970;2023-07-16T14:44:14;26.80;1.00
2409;DHT22;8463;48.094;7.970;2023-07-16T14:46:39;26.40;1.00
2409;DHT22;8463;48.094;7.970;2023-07-16T14:49:05;26.00;1.00
2409;DHT22;8463;48.094;7.970;2023-07-16T14:51:31;25.90;1.00
2409;DHT22;8463;48.094;7.970;2023-07-16T14:54:07;26.20;1.00
2409;DHT22;8463;48.094;7.970;2023-07-16T14:56:32;26.20;1.00
2409;DHT22;8463;48.094;7.970;2023-07-16T14:59:04;26.30;1.00
2409;DHT22;8463;48.094;7.970;2023-07-16T15:01:30;26.30;1.00
2409;DHT22;8463;48.094;7.970;2023-07-16T15:03:56;26.30;1.00
2409;DHT22;8463;48.094;7.970;2023-07-16T15:08:50;26.00;1.00
2409;DHT22;8463;48.094;7.970;2023-07-16T15:11:17;26.00;1.00
2409;DHT22;8463;48.094;7.970;2023-07-16T15:13:43;26.30;1.00
2409;DHT22;8463;48.094;7.970;2023-07-16T15:16:08;26.50;1.00
2409;DHT22;8463;48.094;7.970;2023-07-16T15:18:40;26.50;1.00
2409;DHT22;8463;48.094;7.970;2023-07-16T15:21:06;26.70;1.00
2409;DHT22;8463;48.094;7.970;2023-07-16T15:23:32;26.10;1.00
2409;DHT22;8463;48.094;7.970;2023-07-16T15:26:04;26.50;1.00
2409;DHT22;8463;48.094;7.970;2023-07-16T15:28:32;26.50;1.00
2409;DHT22;8463;48.094;7.970;2023-07-16T15:31:05;27.10;1.00
2409;DHT22;8463;48.094;7.970;2023-07-16T15:33:31;27.20;1.00
2409;DHT22;8463;48.094;7.970;2023-07-16T15:35:57;27.30;1.00
2409;DHT22;8463;48.094;7.970;2023-07-16T15:38:26;27.10;1.00
2409;DHT22;8463;48.094;7.970;2023-07-16T15:40:52;27.00;1.00
2409;DHT22;8463;48.094;7.970;2023-07-16T15:43:18;26.90;1.00
2409;DHT22;8463;48.094;7.970;2023-07-16T15:45:44;26.60;1.00
2409;DHT22;8463;48.094;7.970;2023-07-16T15:48:09;26.60;1.00
2409;DHT22;8463;48.094;7.970;2023-07-16T15:50:40;26.70;1.00
2409;DHT22;8463;48.094;7.970;2023-07-16T15:53:06;26.40;1.00
2409;DHT22;8463;48.094;7.970;2023-07-16T15:55:32;26.40;1.00
2409;DHT22;8463;48.094;7.970;2023-07-16T15:57:58;26.50;1.00
2409;DHT22;8463;48.094;7.970;2023-07-16T16:00:27;26.50;1.00
2409;DHT22;8463;48.094;7.970;2023-07-16T16:02:52;26.80;1.00
2409;DHT22;8463;48.094;7.970;2023-07-16T16:05:20;27.30;1.00
2409;DHT22;8463;48.094;7.970;2023-07-16T16:10:32;27.20;1.00
2409;DHT22;8463;48.094;7.970;2023-07-16T16:12:57;27.00;1.00
2409;DHT22;8463;48.094;7.970;2023-07-16T16:15:23;27.00;1.00
2409;DHT22;8463;48.094;7.970;2023-07-16T16:17:54;27.10;1.00
2409;DHT22;8463;48.094;7.970;2023-07-16T16:20:19;27.00;1.00
2409;DHT22;8463;48.094;7.970;2023-07-16T16:22:52;27.20;1.00
2409;DHT22;8463;48.094;7.970;2023-07-16T16:25:18;26.30;1.00
2409;DHT22;8463;48.094;7.970;2023-07-16T16:27:45;26.30;1.00
2409;DHT22;8463;48.094;7.970;2023-07-16T16:30:11;26.30;1.00
2409;DHT22;8463;48.094;7.970;2023-07-16T16:32:40;26.30;1.00
2409;DHT22;8463;48.094;7.970;2023-07-16T16:35:06;26.30;1.00
2409;DHT22;8463;48.094;7.970;2023-07-16T16:37:32;26.00;1.00
2409;DHT22;8463;48.094;7.970;2023-07-16T16:39:58;25.90;1.00
2409;DHT22;8463;48.094;7.970;2023-07-16T16:42:28;25.60;1.00
2409;DHT22;8463;48.094;7.970;2023-07-16T16:44:54;25.90;1.00
2409;DHT22;8463;48.094;7.970;2023-07-16T16:47:19;25.80;1.00
2409;DHT22;8463;48.094;7.970;2023-07-16T16:49:45;25.80;1.00
2409;DHT22;8463;48.094;7.970;2023-07-16T16:52:10;25.70;1.00
2409;DHT22;8463;48.094;7.970;2023-07-16T16:54:42;25.70;1.00
2409;DHT22;8463;48.094;7.970;2023-07-16T16:57:07;25.70;1.00
2409;DHT22;8463;48.094;7.970;2023-07-16T16:59:35;25.50;1.00